Time;durP1;ratioP1;P1;durP2;ratioP2;P2;SDS_P1;SDS_P2;PMS_P1;PMS_P2;Temp;Humidity;BMP_temperature;BMP_pressure;BME280_temperature;BME280_humidity;BME280_pressure;Samples;Min_cycle;Max_cycle;Signal;HPM_P1;HPM_P2
2021/10/06 00:02:05;;;;;;;14.63;7.05;;;;;;;8.80;75.90;97426.44;5052438;28;20021;-62
2021/10/06 00:04:30;;;;;;;14.05;7.03;;;;;;;8.86;75.43;97422.84;5052584;28;20387;-62
2021/10/06 00:06:56;;;;;;;12.63;7.03;;;;;;;8.94;76.00;97422.72;5052552;28;20021;-61
2021/10/06 00:09:21;;;;;;;8.48;6.28;;;;;;;8.98;75.47;97420.00;5052432;28;20017;-62
2021/10/06 00:11:47;;;;;;;16.92;7.45;;;;;;;9.06;75.51;97421.66;5055154;28;20035;-62
2021/10/06 00:14:13;;;;;;;10.95;7.30;;;;;;;9.08;75.85;97415.50;5056079;28;20017;-62
2021/10/06 00:16:38;;;;;;;12.95;7.22;;;;;;;9.14;76.06;97411.03;5056126;28;20564;-61
2021/10/06 00:19:06;;;;;;;11.13;7.35;;;;;;;9.22;75.84;97422.22;5055991;28;20056;-61
2021/10/06 00:21:31;;;;;;;10.05;6.88;;;;;;;9.25;75.60;97424.78;5054663;28;20049;-62
2021/10/06 00:23:57;;;;;;;12.60;6.80;;;;;;;9.29;75.51;97417.75;5056185;28;20476;-61
2021/10/06 00:26:23;;;;;;;9.38;6.63;;;;;;;9.23;75.82;97421.31;5056033;28;20479;-61
2021/10/06 00:28:48;;;;;;;12.45;7.32;;;;;;;9.28;75.70;97419.50;5055954;28;20029;-62
2021/10/06 00:31:14;;;;;;;11.38;7.47;;;;;;;9.33;75.91;97425.50;5055756;28;20025;-62
2021/10/06 00:33:41;;;;;;;17.58;7.55;;;;;;;9.35;76.21;97417.63;5055855;28;20047;-61
2021/10/06 00:36:06;;;;;;;10.85;7.07;;;;;;;9.43;76.27;97420.09;5055488;28;20049;-61
2021/10/06 00:38:32;;;;;;;15.68;7.40;;;;;;;9.49;75.63;97425.22;5055641;28;20017;-61
2021/10/06 00:40:58;;;;;;;11.27;6.80;;;;;;;9.56;75.51;97426.81;5055793;28;20105;-61
2021/10/06 00:43:23;;;;;;;10.88;6.85;;;;;;;9.59;75.70;97418.03;5055544;28;20021;-61
2021/10/06 00:45:49;;;;;;;17.02;8.18;;;;;;;9.53;75.61;97423.38;5055545;28;20029;-61
2021/10/06 00:48:16;;;;;;;12.88;7.85;;;;;;;9.55;75.87;97408.56;5055504;28;20402;-62
2021/10/06 00:50:42;;;;;;;14.68;7.60;;;;;;;9.58;75.86;97419.78;5055532;28;20383;-62
2021/10/06 00:53:07;;;;;;;10.70;6.75;;;;;;;9.61;75.92;97419.72;5055565;28;20025;-62
2021/10/06 00:55:34;;;;;;;12.35;7.28;;;;;;;9.65;75.93;97424.88;5055434;28;20036;-62
2021/10/06 00:57:59;;;;;;;11.32;6.95;;;;;;;9.69;75.78;97410.91;5055403;28;20483;-62
2021/10/06 01:00:25;;;;;;;10.02;6.80;;;;;;;9.74;75.66;97406.41;5055258;28;20029;-62
2021/10/06 01:02:50;;;;;;;12.80;8.40;;;;;;;9.80;75.83;97406.28;5055373;28;20030;-62
2021/10/06 01:05:17;;;;;;;17.33;7.20;;;;;;;9.75;75.39;97402.06;5055135;28;20083;-62
2021/10/06 01:07:43;;;;;;;11.63;7.00;;;;;;;9.73;75.48;97396.88;5055107;28;20116;-62
2021/10/06 01:10:09;;;;;;;14.35;6.85;;;;;;;9.71;75.24;97394.28;5055155;28;20116;-61
2021/10/06 01:12:37;;;;;;;11.20;7.22;;;;;;;9.77;75.40;97393.28;5055058;28;20371;-62
2021/10/06 01:15:05;;;;;;;12.68;7.50;;;;;;;9.82;75.35;97385.34;5055125;28;20039;-62
2021/10/06 01:17:31;;;;;;;12.82;6.70;;;;;;;9.83;75.44;97376.63;5054947;28;20021;-62
2021/10/06 01:19:57;;;;;;;8.88;6.95;;;;;;;9.87;75.82;97380.88;5054946;28;20394;-62
2021/10/06 01:22:22;;;;;;;7.80;6.63;;;;;;;9.90;75.55;97378.19;5053763;28;20027;-62
2021/10/06 01:24:48;;;;;;;9.15;6.43;;;;;;;9.95;75.17;97381.59;5054893;28;20017;-62
2021/10/06 01:27:13;;;;;;;13.80;6.93;;;;;;;9.88;74.83;97377.38;5054898;28;20053;-62
2021/10/06 01:29:40;;;;;;;9.38;6.57;;;;;;;9.88;75.06;97376.53;5054695;28;20020;-61
2021/10/06 01:32:17;;;;;;;13.57;6.78;;;;;;;9.91;75.13;97366.88;5054554;28;20463;-62
2021/10/06 01:34:54;;;;;;;9.38;6.38;;;;;;;9.94;75.84;97366.78;5054828;28;20028;-62
2021/10/06 01:37:19;;;;;;;10.45;6.68;;;;;;;9.91;75.29;97368.63;5054400;28;20080;-62
2021/10/06 01:39:45;;;;;;;8.05;6.60;;;;;;;9.84;75.32;97370.47;5054606;28;20452;-62
2021/10/06 01:42:11;;;;;;;10.85;6.93;;;;;;;9.85;75.27;97370.44;5054406;28;20033;-62
2021/10/06 01:44:36;;;;;;;10.35;6.60;;;;;;;9.84;75.45;97371.34;5054342;28;20100;-62
2021/10/06 01:47:02;;;;;;;16.02;6.93;;;;;;;9.77;74.82;97376.75;5054394;28;20032;-62
2021/10/06 01:49:27;;;;;;;11.43;6.72;;;;;;;9.74;75.01;97372.44;5054322;28;20047;-62
2021/10/06 01:51:53;;;;;;;10.68;6.10;;;;;;;9.74;74.81;97375.06;5054278;28;20477;-62
2021/10/06 01:54:18;;;;;;;10.30;6.63;;;;;;;9.69;74.34;97363.88;5054206;28;20025;-62
2021/10/06 01:56:44;;;;;;;17.52;6.78;;;;;;;9.67;74.12;97368.25;5054148;28;20474;-62
2021/10/06 01:59:09;;;;;;;12.70;6.95;;;;;;;9.64;74.39;97365.69;5054091;28;20037;-62
2021/10/06 02:01:35;;;;;;;10.23;6.63;;;;;;;9.60;74.99;97370.13;5054074;28;20033;-62
2021/10/06 02:04:00;;;;;;;13.70;6.78;;;;;;;9.52;75.25;97374.66;5054196;28;20041;-62
2021/10/06 02:06:26;;;;;;;11.07;7.22;;;;;;;9.42;75.59;97367.00;5054063;28;20100;-62
2021/10/06 02:08:51;;;;;;;9.73;6.78;;;;;;;9.39;75.28;97361.84;5053972;28;20082;-62
2021/10/06 02:11:17;;;;;;;8.40;6.43;;;;;;;9.35;75.24;97365.41;5053984;28;20036;-62
2021/10/06 02:13:42;;;;;;;8.95;6.85;;;;;;;9.34;75.16;97358.47;5053910;28;20390;-62
2021/10/06 02:16:08;;;;;;;10.70;7.13;;;;;;;9.33;74.80;97368.03;5054027;28;20036;-62
2021/10/06 02:18:34;;;;;;;8.55;6.25;;;;;;;9.31;74.59;97368.97;5053894;28;20379;-62
2021/10/06 02:20:59;;;;;;;12.68;6.38;;;;;;;9.26;74.93;97368.19;5053697;28;20029;-61
2021/10/06 02:23:25;;;;;;;12.10;6.70;;;;;;;9.20;74.99;97366.56;5053740;28;20045;-62
2021/10/06 02:25:51;;;;;;;14.13;6.97;;;;;;;9.17;74.99;97361.41;5053723;28;20479;-62
2021/10/06 02:28:16;;;;;;;15.38;6.78;;;;;;;9.15;74.87;97358.81;5053669;28;20478;-62
2021/10/06 02:30:42;;;;;;;10.32;6.70;;;;;;;9.14;74.92;97354.50;5053723;28;20429;-62
2021/10/06 02:33:08;;;;;;;7.85;6.00;;;;;;;9.12;75.29;97352.81;5053433;28;20064;-61
2021/10/06 02:35:34;;;;;;;16.67;7.10;;;;;;;9.09;74.75;97349.34;5053315;28;20078;-62
2021/10/06 02:37:59;;;;;;;10.70;6.55;;;;;;;9.05;74.79;97352.91;5053542;28;20029;-61
2021/10/06 02:40:25;;;;;;;9.05;6.75;;;;;;;8.97;75.20;97354.78;5053407;28;20465;-62
2021/10/06 02:42:51;;;;;;;9.20;6.82;;;;;;;8.89;75.32;97347.13;5053357;28;20021;-62
2021/10/06 02:45:18;;;;;;;9.85;6.97;;;;;;;8.91;75.49;97349.72;5053219;28;20071;-62
2021/10/06 02:47:46;;;;;;;9.02;6.85;;;;;;;8.94;75.37;97342.66;5053272;28;20074;-62
2021/10/06 02:50:16;;;;;;;9.88;6.72;;;;;;;8.97;75.29;97352.19;5053278;28;20104;-61
2021/10/06 02:52:41;;;;;;;10.85;7.70;;;;;;;8.94;75.33;97347.88;5053524;28;20032;-62
2021/10/06 02:55:08;;;;;;;11.30;6.68;;;;;;;8.97;75.27;97346.97;5053154;28;20036;-61
2021/10/06 02:57:34;;;;;;;13.23;6.70;;;;;;;8.96;75.49;97350.47;5053127;28;20029;-62
2021/10/06 03:00:00;;;;;;;14.48;6.13;;;;;;;9.00;75.18;97353.91;5053028;28;20029;-62
2021/10/06 03:02:25;;;;;;;11.80;6.43;;;;;;;9.00;75.03;97357.34;5053164;28;20021;-62
2021/10/06 03:04:51;;;;;;;11.30;6.95;;;;;;;9.01;74.96;97351.25;5053231;28;20025;-62
2021/10/06 03:07:17;;;;;;;8.23;6.43;;;;;;;9.00;74.96;97352.13;5053066;28;20498;-62
2021/10/06 03:09:43;;;;;;;8.45;6.40;;;;;;;9.02;75.05;97359.94;5053262;28;20525;-62
2021/10/06 03:12:10;;;;;;;9.75;6.95;;;;;;;9.02;75.16;97365.16;5053050;28;20036;-62
2021/10/06 03:14:35;;;;;;;9.70;6.28;;;;;;;9.08;75.15;97368.53;5053052;28;20029;-61
2021/10/06 03:17:01;;;;;;;11.23;6.90;;;;;;;9.14;75.12;97366.66;5053037;28;20380;-62
2021/10/06 03:19:26;;;;;;;10.38;6.55;;;;;;;9.14;74.99;97367.53;5052836;28;20028;-62
2021/10/06 03:21:52;;;;;;;10.32;6.78;;;;;;;9.13;74.83;97360.63;5052905;28;20166;-62
2021/10/06 03:24:17;;;;;;;11.18;6.80;;;;;;;9.08;75.02;97360.69;5052941;28;20021;-62
2021/10/06 03:26:43;;;;;;;13.68;7.68;;;;;;;9.03;75.19;97359.06;5052934;28;20029;-61
2021/10/06 03:29:08;;;;;;;10.95;7.18;;;;;;;8.96;75.39;97363.53;5053036;28;20098;-62
2021/10/06 03:31:34;;;;;;;9.77;7.45;;;;;;;8.96;75.52;97363.53;5052741;28;20096;-62
2021/10/06 03:33:59;;;;;;;11.95;6.95;;;;;;;9.02;75.57;97366.03;5052833;28;20394;-62
2021/10/06 03:36:26;;;;;;;15.93;7.85;;;;;;;9.01;75.59;97366.91;5052584;28;20499;-62
2021/10/06 03:38:53;;;;;;;10.60;6.90;;;;;;;9.03;75.62;97362.50;5052664;28;20083;-61
2021/10/06 03:41:19;;;;;;;13.18;7.97;;;;;;;9.05;75.46;97370.31;5052810;28;20025;-62
2021/10/06 03:43:44;;;;;;;11.75;6.85;;;;;;;9.03;75.29;97362.50;5052769;28;20028;-62
2021/10/06 03:46:10;;;;;;;10.20;7.00;;;;;;;8.98;75.65;97353.94;5054470;28;20017;-61
2021/10/06 03:48:35;;;;;;;12.52;7.20;;;;;;;9.01;75.54;97353.00;5056595;28;20028;-62
2021/10/06 03:51:01;;;;;;;9.90;6.85;;;;;;;9.02;75.37;97354.72;5056578;28;20017;-62
2021/10/06 03:53:26;;;;;;;9.73;6.65;;;;;;;9.00;75.74;97356.50;5056531;28;20025;-62
2021/10/06 03:55:52;;;;;;;10.40;7.35;;;;;;;9.00;75.72;97352.13;5056516;28;20104;-62
2021/10/06 03:58:17;;;;;;;10.88;7.30;;;;;;;8.98;75.57;97348.72;5056513;28;20032;-62
2021/10/06 04:00:43;;;;;;;13.13;7.55;;;;;;;9.05;75.27;97347.69;5056383;28;20029;-62
2021/10/06 04:03:12;;;;;;;15.32;7.40;;;;;;;9.05;75.53;97342.47;5056362;28;20033;-62
2021/10/06 04:05:39;;;;;;;13.23;8.55;;;;;;;9.08;75.29;97344.16;5056391;28;20048;-62
2021/10/06 04:08:05;;;;;;;13.45;6.97;;;;;;;9.03;75.36;97351.25;5056249;28;20023;-61
2021/10/06 04:10:31;;;;;;;11.90;7.72;;;;;;;9.07;75.44;97350.28;5056248;28;20029;-62
2021/10/06 04:12:57;;;;;;;15.63;6.80;;;;;;;9.02;75.45;97350.38;5056258;28;20067;-62
2021/10/06 04:15:22;;;;;;;13.48;8.32;;;;;;;8.93;75.41;97348.78;5056142;28;20017;-62
2021/10/06 04:17:48;;;;;;;13.18;8.50;;;;;;;8.95;75.99;97348.75;5056238;28;20021;-61
2021/10/06 04:20:14;;;;;;;10.85;7.32;;;;;;;8.99;75.84;97350.41;5055964;28;20048;-62
2021/10/06 04:22:40;;;;;;;11.73;7.80;;;;;;;9.03;75.58;97354.69;5055942;28;20028;-62
2021/10/06 04:25:07;;;;;;;10.32;7.53;;;;;;;9.07;75.73;97356.38;5055892;28;20017;-62
2021/10/06 04:27:33;;;;;;;15.98;7.57;;;;;;;9.12;75.71;97355.41;5055945;28;20091;-61
2021/10/06 04:29:58;;;;;;;13.85;7.38;;;;;;;9.14;75.63;97357.09;5055942;28;20053;-62
2021/10/06 04:32:24;;;;;;;13.65;6.88;;;;;;;9.16;75.71;97357.94;5055760;28;20028;-62
2021/10/06 04:34:50;;;;;;;11.02;6.70;;;;;;;9.24;75.96;97355.16;5055811;28;20082;-61
2021/10/06 04:37:16;;;;;;;9.45;6.90;;;;;;;9.29;76.27;97345.50;5055497;28;20052;-61
2021/10/06 04:39:41;;;;;;;17.83;6.55;;;;;;;9.24;75.75;97342.09;5055527;28;20044;-61
2021/10/06 04:42:07;;;;;;;13.60;8.35;;;;;;;9.25;75.69;97346.47;5055663;28;20024;-62
2021/10/06 04:44:33;;;;;;;11.50;7.25;;;;;;;9.31;75.63;97348.09;5055517;28;20021;-62
2021/10/06 04:46:58;;;;;;;13.85;6.50;;;;;;;9.35;75.96;97349.72;5055496;28;20036;-61
2021/10/06 04:49:24;;;;;;;12.02;7.13;;;;;;;9.42;76.52;97351.31;5055624;28;20067;-62
2021/10/06 04:51:49;;;;;;;12.55;7.07;;;;;;;9.50;76.53;97352.91;5055547;28;20521;-61
2021/10/06 04:54:15;;;;;;;9.10;6.75;;;;;;;9.58;76.29;97351.88;5055398;28;20022;-61
2021/10/06 04:56:41;;;;;;;11.80;6.75;;;;;;;9.62;76.35;97350.06;5055280;28;20501;-62
2021/10/06 04:59:06;;;;;;;8.88;7.03;;;;;;;9.68;75.88;97352.53;5055384;28;20104;-61
2021/10/06 05:01:32;;;;;;;10.00;6.72;;;;;;;9.73;75.77;97352.44;5055381;28;20036;-62
2021/10/06 05:03:57;;;;;;;14.80;7.05;;;;;;;9.79;76.00;97351.44;5055472;28;20024;-62
2021/10/06 05:06:23;;;;;;;9.35;6.75;;;;;;;9.83;75.27;97351.34;5055314;28;20052;-62
2021/10/06 05:08:49;;;;;;;10.32;6.35;;;;;;;9.84;75.57;97347.84;5055045;28;20108;-61
2021/10/06 05:11:15;;;;;;;12.45;6.68;;;;;;;9.90;74.97;97346.84;5053985;28;20028;-62
2021/10/06 05:13:40;;;;;;;8.90;6.05;;;;;;;9.94;74.67;97348.47;5055067;28;20130;-61
2021/10/06 05:16:06;;;;;;;9.43;6.47;;;;;;;10.03;74.78;97341.34;5054985;28;20021;-62
2021/10/06 05:18:32;;;;;;;9.80;5.30;;;;;;;10.10;74.78;97346.41;5054952;28;20104;-61
2021/10/06 05:20:58;;;;;;;8.68;5.80;;;;;;;10.16;73.88;97350.63;5054741;28;20029;-61
2021/10/06 05:23:23;;;;;;;13.55;6.75;;;;;;;10.18;74.62;97345.34;5053556;28;20095;-61
2021/10/06 05:25:49;;;;;;;11.43;6.22;;;;;;;10.26;75.03;97356.47;5054785;28;20021;-62
2021/10/06 05:28:14;;;;;;;7.15;6.03;;;;;;;10.31;74.18;97357.25;5054839;28;20071;-61
2021/10/06 05:30:40;;;;;;;15.73;6.30;;;;;;;10.34;74.21;97353.69;5054738;28;20514;-61
2021/10/06 05:33:06;;;;;;;9.55;6.30;;;;;;;10.42;73.68;97359.56;5054771;28;20021;-61
2021/10/06 05:35:32;;;;;;;18.20;6.40;;;;;;;10.49;73.69;97361.22;5054580;28;20025;-61
2021/10/06 05:37:57;;;;;;;17.52;5.80;;;;;;;10.54;72.90;97363.69;5054413;28;20132;-62
2021/10/06 05:40:23;;;;;;;7.10;5.63;;;;;;;10.64;72.40;97355.59;5054549;28;20040;-61
2021/10/06 05:42:48;;;;;;;10.52;6.00;;;;;;;10.71;72.55;97355.41;5054550;28;20053;-61
2021/10/06 05:45:14;;;;;;;12.52;7.13;;;;;;;10.74;73.25;97355.34;5054480;28;20074;-61
2021/10/06 05:47:39;;;;;;;12.50;7.18;;;;;;;10.82;72.48;97360.38;5054464;28;20029;-61
2021/10/06 05:50:06;;;;;;;8.73;6.00;;;;;;;10.90;72.04;97360.19;5054456;28;20100;-61
2021/10/06 05:52:33;;;;;;;12.18;6.57;;;;;;;10.97;72.08;97358.25;5054318;28;20048;-61
2021/10/06 05:55:00;;;;;;;11.38;6.38;;;;;;;11.04;72.46;97367.66;5054278;28;20096;-61
2021/10/06 05:57:25;;;;;;;11.90;5.28;;;;;;;11.10;71.93;97362.25;5054343;28;20083;-61
2021/10/06 05:59:53;;;;;;;10.23;6.22;;;;;;;11.15;72.26;97356.91;5053992;28;20031;-61
2021/10/06 06:02:19;;;;;;;8.98;5.60;;;;;;;11.23;72.42;97354.94;5054269;28;20025;-61
2021/10/06 06:04:45;;;;;;;9.05;5.97;;;;;;;11.33;72.75;97352.94;5054183;28;20028;-61
2021/10/06 06:07:11;;;;;;;11.02;5.63;;;;;;;11.45;72.28;97348.22;5054125;28;20033;-62
2021/10/06 06:09:36;;;;;;;10.73;5.82;;;;;;;11.58;71.03;97359.22;5053427;28;20028;-62
2021/10/06 06:12:02;;;;;;;9.52;4.88;;;;;;;11.72;69.50;97366.69;5053944;28;20390;-61
2021/10/06 06:14:29;;;;;;;7.95;4.20;;;;;;;11.84;67.78;97365.44;5054082;28;20021;-61
2021/10/06 06:16:55;;;;;;;6.13;4.65;;;;;;;11.95;67.29;97367.75;5053882;28;20437;-61
2021/10/06 06:19:21;;;;;;;7.70;4.53;;;;;;;12.04;66.74;97370.06;5053826;28;20017;-62
2021/10/06 06:21:46;;;;;;;8.10;4.68;;;;;;;12.18;66.80;97367.06;5053813;28;20402;-61
2021/10/06 06:24:12;;;;;;;9.68;4.60;;;;;;;12.38;66.07;97366.41;5053685;28;20505;-62
2021/10/06 06:26:38;;;;;;;11.00;4.68;;;;;;;12.63;65.12;97360.38;5053697;28;20024;-63
2021/10/06 06:29:03;;;;;;;10.35;3.95;;;;;;;13.26;63.46;97348.63;5053772;28;20025;-62
2021/10/06 06:31:29;;;;;;;7.85;3.38;;;;;;;14.32;59.75;97359.59;5053758;28;20025;-62
2021/10/06 06:33:55;;;;;;;4.97;2.90;;;;;;;15.83;53.39;97359.38;5053633;28;20522;-63
2021/10/06 06:36:21;;;;;;;5.05;3.17;;;;;;;17.18;50.00;97359.94;5053326;28;20506;-62
2021/10/06 06:38:47;;;;;;;6.10;3.25;;;;;;;18.49;48.33;97370.63;5053329;28;20116;-63
2021/10/06 06:41:13;;;;;;;3.55;2.42;;;;;;;20.42;44.37;97366.13;5053501;28;20108;-62
2021/10/06 06:43:38;;;;;;;7.97;2.67;;;;;;;22.07;40.68;97362.16;5053311;28;20029;-63
2021/10/06 06:46:04;;;;;;;5.93;2.22;;;;;;;23.24;35.91;97353.59;5053379;28;20021;-63
2021/10/06 06:48:30;;;;;;;4.45;2.83;;;;;;;24.18;33.09;97362.38;5053471;28;20108;-62
2021/10/06 06:50:57;;;;;;;9.00;3.33;;;;;;;25.09;30.44;97363.88;5053226;28;20040;-62
2021/10/06 06:53:27;;;;;;;4.80;3.58;;;;;;;25.74;28.62;97355.69;5053294;28;20029;-62
2021/10/06 06:55:57;;;;;;;7.03;3.25;;;;;;;25.76;27.99;97357.41;5053309;28;20086;-62
2021/10/06 06:58:23;;;;;;;6.38;3.40;;;;;;;25.84;27.94;97355.72;5053306;28;20395;-63
2021/10/06 07:00:52;;;;;;;8.57;3.38;;;;;;;25.33;28.33;97352.94;5053238;28;20027;-62
2021/10/06 07:03:18;;;;;;;5.75;3.50;;;;;;;24.73;29.63;97354.31;5053088;28;20017;-63
2021/10/06 07:05:45;;;;;;;6.78;3.53;;;;;;;24.73;29.92;97354.31;5053117;28;20130;-62
2021/10/06 07:08:10;;;;;;;5.03;3.50;;;;;;;25.00;29.81;97354.81;5053072;28;20024;-63
2021/10/06 07:10:36;;;;;;;6.38;3.03;;;;;;;25.04;29.46;97355.44;5053088;28;20021;-63
2021/10/06 07:13:02;;;;;;;4.70;3.22;;;;;;;25.02;29.67;97355.56;5053049;28;20021;-62
2021/10/06 07:15:28;;;;;;;4.97;4.05;;;;;;;25.04;29.61;97358.09;5053005;28;20071;-62
2021/10/06 07:17:54;;;;;;;6.30;3.50;;;;;;;24.80;29.45;97361.84;5052971;28;20029;-62
2021/10/06 07:20:20;;;;;;;6.82;4.63;;;;;;;24.73;30.11;97356.13;5053376;28;20391;-62
2021/10/06 07:22:46;;;;;;;7.43;3.97;;;;;;;24.57;29.98;97356.56;5057009;28;20017;-63
2021/10/06 07:25:12;;;;;;;6.22;4.03;;;;;;;24.09;30.66;97358.59;5057124;28;20445;-62
2021/10/06 07:27:38;;;;;;;4.75;3.70;;;;;;;23.55;32.07;97353.03;5057131;28;20086;-62
2021/10/06 07:30:04;;;;;;;5.82;3.92;;;;;;;22.74;31.55;97352.00;5057099;28;20106;-62
2021/10/06 07:32:30;;;;;;;6.50;4.13;;;;;;;22.56;34.11;97347.03;5055660;28;20167;-61
2021/10/06 07:34:56;;;;;;;7.15;3.70;;;;;;;22.28;33.96;97362.41;5056855;28;20104;-61
2021/10/06 07:37:22;;;;;;;15.05;3.80;;;;;;;22.01;34.13;97359.94;5056526;28;20049;-62
2021/10/06 07:39:48;;;;;;;8.77;4.10;;;;;;;21.39;35.44;97352.63;5056848;28;20059;-62
2021/10/06 07:42:15;;;;;;;6.47;4.10;;;;;;;21.18;35.69;97349.66;5056924;28;20510;-62
2021/10/06 07:44:41;;;;;;;6.07;3.85;;;;;;;20.92;35.38;97350.47;5056785;28;20025;-62
2021/10/06 07:47:08;;;;;;;8.20;3.25;;;;;;;20.96;35.02;97346.63;5056853;28;20482;-62
2021/10/06 07:49:33;;;;;;;9.05;4.25;;;;;;;20.63;35.86;97347.06;5056614;28;20018;-61
2021/10/06 07:51:59;;;;;;;6.20;4.30;;;;;;;20.45;36.88;97339.38;5056624;28;20023;-61
2021/10/06 07:54:25;;;;;;;6.43;4.13;;;;;;;20.80;37.12;97335.34;5056554;28;20029;-62
2021/10/06 07:56:50;;;;;;;7.80;3.92;;;;;;;21.07;36.51;97329.13;5056588;28;20024;-62
2021/10/06 07:59:16;;;;;;;6.50;3.38;;;;;;;21.25;35.16;97328.81;5056385;28;20025;-61
2021/10/06 08:01:43;;;;;;;6.80;2.63;;;;;;;20.93;35.74;97330.06;5056465;28;20044;-63
2021/10/06 08:04:09;;;;;;;10.60;2.50;;;;;;;20.88;34.18;97322.34;5056412;28;20047;-63
2021/10/06 08:06:35;;;;;;;6.57;2.45;;;;;;;20.72;34.91;97319.88;5056410;28;20021;-62
2021/10/06 08:09:00;;;;;;;2.95;2.28;;;;;;;19.85;36.00;97331.63;5056507;28;20120;-63
2021/10/06 08:11:26;;;;;;;4.10;2.05;;;;;;;20.00;35.02;97318.31;5056267;28;20433;-62
2021/10/06 08:13:52;;;;;;;4.13;2.47;;;;;;;20.11;37.02;97312.38;5056246;28;20029;-63
2021/10/06 08:16:17;;;;;;;5.97;2.25;;;;;;;20.26;36.01;97314.00;5056222;28;20076;-61
2021/10/06 08:18:43;;;;;;;10.63;2.58;;;;;;;20.56;36.29;97312.94;5056053;28;20024;-62
2021/10/06 08:21:09;;;;;;;9.65;2.67;;;;;;;20.50;36.99;97320.47;5056137;28;20021;-63
2021/10/06 08:23:34;;;;;;;4.65;2.58;;;;;;;20.57;34.49;97312.00;5056089;28;20048;-61
2021/10/06 08:26:00;;;;;;;6.05;2.80;;;;;;;20.91;35.77;97308.88;5055976;28;20025;-62
2021/10/06 08:28:26;;;;;;;5.05;3.20;;;;;;;21.11;36.60;97313.78;5056031;28;20497;-63
2021/10/06 08:30:51;;;;;;;5.32;2.53;;;;;;;21.14;34.83;97316.25;5055623;28;20032;-62
2021/10/06 08:33:17;;;;;;;5.70;3.05;;;;;;;20.92;35.19;97305.25;5055565;28;20021;-61
2021/10/06 08:35:42;;;;;;;6.13;2.55;;;;;;;20.54;33.23;97319.31;5055974;28;20545;-62
2021/10/06 08:38:09;;;;;;;4.85;2.08;;;;;;;19.95;34.84;97314.16;5055560;28;20045;-62
2021/10/06 08:40:36;;;;;;;5.68;1.98;;;;;;;19.65;38.01;97307.19;5055739;28;20025;-61
2021/10/06 08:43:04;;;;;;;5.15;2.15;;;;;;;19.43;35.54;97311.22;5055656;28;20043;-62
2021/10/06 08:45:30;;;;;;;3.45;2.00;;;;;;;18.92;36.72;97307.16;5055608;28;20097;-62
2021/10/06 08:47:58;;;;;;;4.13;1.92;;;;;;;18.96;37.22;97307.81;5055565;28;20568;-62
2021/10/06 08:50:24;;;;;;;4.95;1.92;;;;;;;18.54;37.36;97302.31;5055434;28;20036;-62
2021/10/06 08:52:51;;;;;;;3.65;1.92;;;;;;;18.80;39.32;97303.44;5055377;28;20030;-62
2021/10/06 08:55:18;;;;;;;8.15;2.28;;;;;;;19.03;39.93;97310.97;5055436;28;20475;-61
2021/10/06 08:57:44;;;;;;;4.82;2.03;;;;;;;19.17;38.77;97303.03;5055403;28;20119;-62
2021/10/06 09:00:12;;;;;;;6.35;2.28;;;;;;;18.73;38.01;97311.84;5055211;28;20100;-62
2021/10/06 09:02:40;;;;;;;7.00;2.08;;;;;;;18.73;39.43;97306.53;5055242;28;20043;-61
2021/10/06 09:05:07;;;;;;;8.20;2.88;;;;;;;18.87;38.14;97309.22;5055316;28;20057;-62
2021/10/06 09:07:53;;;;;;;5.82;2.45;;;;;;;19.10;38.50;97301.72;5055265;28;20025;-62
2021/10/06 09:10:19;;;;;;;7.50;2.47;;;;;;;19.30;39.02;97303.13;5055250;28;20076;-62
2021/10/06 09:13:06;;;;;;;11.50;2.55;;;;;;;19.32;39.22;97303.03;5055218;28;20429;-61
2021/10/06 09:15:46;;;;;;;8.60;2.03;;;;;;;19.34;37.63;97301.16;5055249;28;20560;-61
2021/10/06 09:18:23;;;;;;;3.42;2.17;;;;;;;18.80;37.41;97311.41;5055232;28;20078;-63
2021/10/06 09:20:50;;;;;;;6.18;2.13;;;;;;;18.57;39.54;97315.38;5054995;28;20043;-61
2021/10/06 09:23:18;;;;;;;3.72;2.15;;;;;;;18.64;39.18;97315.91;5054886;28;20036;-62
2021/10/06 09:25:56;;;;;;;5.68;1.63;;;;;;;18.44;37.98;97308.16;5054968;28;20021;-61
2021/10/06 09:28:31;;;;;;;9.18;1.85;;;;;;;17.81;40.07;97317.84;5054894;28;20029;-62
2021/10/06 09:30:58;;;;;;;3.67;1.88;;;;;;;17.94;41.19;97315.34;5054824;28;20505;-62
2021/10/06 09:33:25;;;;;;;3.35;1.80;;;;;;;18.16;39.50;97323.00;5054689;28;20051;-62
2021/10/06 09:36:07;;;;;;;3.78;1.90;;;;;;;18.36;40.42;97320.16;5054542;28;20475;-62
2021/10/06 09:38:40;;;;;;;4.50;1.80;;;;;;;18.64;40.11;97310.59;5054706;28;20044;-61
2021/10/06 09:41:44;;;;;;;5.93;2.13;;;;;;;18.78;38.71;97309.78;5054474;28;20059;-62
2021/10/06 09:44:19;;;;;;;8.35;1.90;;;;;;;18.87;38.39;97303.09;5053499;28;20052;-61
2021/10/06 09:46:58;;;;;;;6.82;2.15;;;;;;;19.01;41.52;97310.19;5054587;28;20028;-62
2021/10/06 09:49:29;;;;;;;5.38;1.98;;;;;;;19.12;39.66;97306.94;5054425;28;20052;-62
2021/10/06 09:52:14;;;;;;;6.68;2.00;;;;;;;19.15;37.64;97304.94;5054453;28;20064;-62
2021/10/06 09:55:01;;;;;;;6.72;2.00;;;;;;;18.72;37.79;97304.84;5054404;28;20044;-62
2021/10/06 09:57:41;;;;;;;4.43;1.77;;;;;;;17.80;39.27;97310.84;5053929;28;20033;-61
2021/10/06 10:00:09;;;;;;;6.53;1.87;;;;;;;17.33;40.27;97308.03;5054123;28;20032;-61
2021/10/06 10:02:36;;;;;;;8.98;2.30;;;;;;;17.24;41.85;97305.88;5054188;28;20387;-62
2021/10/06 10:05:03;;;;;;;8.13;2.42;;;;;;;17.24;41.86;97308.53;5054092;28;20486;-61
2021/10/06 10:07:29;;;;;;;3.72;1.95;;;;;;;17.24;43.20;97300.59;5054115;28;20017;-62
2021/10/06 10:09:55;;;;;;;4.65;2.08;;;;;;;17.28;42.52;97307.44;5052780;28;20067;-62
2021/10/06 10:12:23;;;;;;;3.55;1.58;;;;;;;17.21;42.83;97301.63;5054059;28;20013;-61
2021/10/06 10:14:49;;;;;;;3.78;2.20;;;;;;;17.07;41.67;97305.00;5053966;28;20021;-62
2021/10/06 10:17:16;;;;;;;4.43;2.08;;;;;;;17.00;42.20;97293.00;5053833;28;20056;-60
2021/10/06 10:19:44;;;;;;;6.03;2.38;;;;;;;17.15;42.13;97297.53;5053824;28;20487;-62
2021/10/06 10:22:11;;;;;;;8.55;2.08;;;;;;;17.09;43.44;97303.13;5053858;28;20091;-61
2021/10/06 10:24:48;;;;;;;6.05;2.58;;;;;;;17.08;42.53;97296.13;5053751;28;20079;-62
2021/10/06 10:27:18;;;;;;;14.10;2.83;;;;;;;16.76;43.50;97288.91;5053945;28;20033;-63
2021/10/06 10:29:49;;;;;;;5.43;2.67;;;;;;;16.59;44.51;97295.06;5053822;28;20025;-62
2021/10/06 10:32:23;;;;;;;7.43;2.33;;;;;;;16.47;44.85;97293.91;5053805;28;20033;-61
2021/10/06 10:35:05;;;;;;;9.38;2.42;;;;;;;16.43;43.45;97289.69;5053664;28;20091;-62
2021/10/06 10:37:46;;;;;;;6.18;2.53;;;;;;;16.40;43.28;97281.91;5053237;28;20086;-62
2021/10/06 10:40:30;;;;;;;8.20;2.30;;;;;;;16.37;43.27;97275.00;5053304;28;20061;-61
2021/10/06 10:43:12;;;;;;;8.35;2.15;;;;;;;16.37;43.95;97282.06;5052166;28;20060;-62
2021/10/06 10:45:44;;;;;;;3.95;2.20;;;;;;;16.16;44.12;97271.63;5053483;28;20467;-61
2021/10/06 10:48:13;;;;;;;5.38;1.73;;;;;;;16.05;43.64;97269.53;5053509;28;20024;-62
2021/10/06 10:50:44;;;;;;;3.40;1.92;;;;;;;16.08;43.75;97271.19;5053405;28;20048;-61
2021/10/06 10:53:14;;;;;;;9.63;2.00;;;;;;;16.18;43.84;97267.16;5053417;28;20025;-61
2021/10/06 10:55:52;;;;;;;3.50;2.15;;;;;;;16.32;43.76;97273.53;5051958;28;20100;-62
2021/10/06 10:58:29;;;;;;;6.63;1.90;;;;;;;16.36;43.62;97256.59;5053338;28;20044;-62
2021/10/06 11:01:03;;;;;;;4.68;1.75;;;;;;;16.52;42.12;97254.03;5053098;28;20086;-62
2021/10/06 11:03:29;;;;;;;3.63;2.22;;;;;;;16.61;42.44;97245.66;5053302;28;20487;-62
2021/10/06 11:05:57;;;;;;;6.22;2.03;;;;;;;16.57;42.24;97259.09;5053124;28;20025;-61
2021/10/06 11:08:36;;;;;;;3.00;1.95;;;;;;;16.55;43.54;97251.25;5053109;28;20017;-61
2021/10/06 11:11:11;;;;;;;6.72;2.78;;;;;;;16.57;43.19;97252.03;5053147;28;20533;-62
2021/10/06 11:13:37;;;;;;;7.88;2.00;;;;;;;16.59;42.75;97244.88;5052987;28;20132;-62
2021/10/06 11:16:04;;;;;;;5.00;2.10;;;;;;;16.67;45.06;97241.84;5052945;28;20025;-61
2021/10/06 11:18:56;;;;;;;6.93;2.13;;;;;;;17.03;43.01;97240.84;5052955;28;20017;-61
2021/10/06 11:21:40;;;;;;;12.00;2.63;;;;;;;17.25;43.05;97231.78;5053085;28;20108;-61
2021/10/06 11:24:20;;;;;;;5.63;2.63;;;;;;;17.36;43.43;97228.56;5053073;28;20029;-62
2021/10/06 11:26:47;;;;;;;3.97;1.88;;;;;;;17.44;43.44;97225.50;5052927;28;20029;-62
2021/10/06 11:29:13;;;;;;;7.13;2.72;;;;;;;17.46;40.68;97226.25;5052915;28;20030;-62
2021/10/06 11:31:40;;;;;;;10.48;2.20;;;;;;;17.60;41.16;97224.63;5052803;28;20025;-62
2021/10/06 11:34:17;;;;;;;5.72;2.00;;;;;;;17.80;41.15;97223.53;5052833;28;20017;-61
2021/10/06 11:36:54;;;;;;;6.20;2.17;;;;;;;18.02;40.48;97217.84;5052675;28;20490;-62